sensor_id;sensor_type;location;lat;lon;timestamp;P1;durP1;ratioP1;P2;durP2;ratioP2
53036;SDS011;38924;52.134;4.666;2023-03-23T00:01:55;21.02;;;19.00;;
53036;SDS011;38924;52.134;4.666;2023-03-23T00:04:21;19.88;;;18.05;;
53036;SDS011;38924;52.134;4.666;2023-03-23T00:06:48;19.50;;;17.65;;
53036;SDS011;38924;52.134;4.666;2023-03-23T00:09:14;19.30;;;17.63;;
53036;SDS011;38924;52.134;4.666;2023-03-23T00:11:41;20.85;;;19.08;;
53036;SDS011;38924;52.134;4.666;2023-03-23T00:14:08;21.25;;;19.30;;
53036;SDS011;38924;52.134;4.666;2023-03-23T00:16:38;19.25;;;17.52;;
53036;SDS011;38924;52.134;4.666;2023-03-23T00:19:07;19.25;;;17.67;;
53036;SDS011;38924;52.134;4.666;2023-03-23T00:21:34;22.40;;;20.60;;
53036;SDS011;38924;52.134;4.666;2023-03-23T00:24:02;20.67;;;18.98;;
53036;SDS011;38924;52.134;4.666;2023-03-23T00:26:28;18.77;;;16.85;;
53036;SDS011;38924;52.134;4.666;2023-03-23T00:28:55;21.10;;;18.85;;
53036;SDS011;38924;52.134;4.666;2023-03-23T00:31:21;18.65;;;16.83;;
53036;SDS011;38924;52.134;4.666;2023-03-23T00:33:47;20.58;;;18.67;;
53036;SDS011;38924;52.134;4.666;2023-03-23T00:36:13;21.70;;;19.90;;
53036;SDS011;38924;52.134;4.666;2023-03-23T00:38:46;20.52;;;18.77;;
53036;SDS011;38924;52.134;4.666;2023-03-23T00:41:12;22.55;;;20.85;;
53036;SDS011;38924;52.134;4.666;2023-03-23T00:43:40;20.20;;;18.30;;
53036;SDS011;38924;52.134;4.666;2023-03-23T00:46:06;22.52;;;20.17;;
53036;SDS011;38924;52.134;4.666;2023-03-23T00:48:37;23.30;;;21.42;;
53036;SDS011;38924;52.134;4.666;2023-03-23T00:51:10;22.42;;;20.10;;
53036;SDS011;38924;52.134;4.666;2023-03-23T00:53:37;19.73;;;17.73;;
53036;SDS011;38924;52.134;4.666;2023-03-23T00:56:02;20.05;;;18.42;;
53036;SDS011;38924;52.134;4.666;2023-03-23T00:58:28;20.27;;;18.27;;
53036;SDS011;38924;52.134;4.666;2023-03-23T01:00:54;22.50;;;20.70;;
53036;SDS011;38924;52.134;4.666;2023-03-23T01:03:20;20.92;;;19.10;;
53036;SDS011;38924;52.134;4.666;2023-03-23T01:05:45;19.77;;;18.27;;
53036;SDS011;38924;52.134;4.666;2023-03-23T01:08:17;21.10;;;19.50;;
53036;SDS011;38924;52.134;4.666;2023-03-23T01:10:45;20.33;;;18.85;;
53036;SDS011;38924;52.134;4.666;2023-03-23T01:13:11;18.73;;;17.27;;
53036;SDS011;38924;52.134;4.666;2023-03-23T01:15:38;21.65;;;20.05;;
53036;SDS011;38924;52.134;4.666;2023-03-23T01:18:04;20.42;;;18.88;;
53036;SDS011;38924;52.134;4.666;2023-03-23T01:20:30;25.42;;;23.20;;
53036;SDS011;38924;52.134;4.666;2023-03-23T01:22:57;19.83;;;18.05;;
53036;SDS011;38924;52.134;4.666;2023-03-23T01:25:27;17.90;;;16.48;;
53036;SDS011;38924;52.134;4.666;2023-03-23T01:27:54;21.10;;;19.30;;
53036;SDS011;38924;52.134;4.666;2023-03-23T01:30:19;18.10;;;16.77;;
53036;SDS011;38924;52.134;4.666;2023-03-23T01:32:45;16.23;;;14.75;;
53036;SDS011;38924;52.134;4.666;2023-03-23T01:35:14;21.45;;;19.55;;
53036;SDS011;38924;52.134;4.666;2023-03-23T01:37:40;20.90;;;18.92;;
53036;SDS011;38924;52.134;4.666;2023-03-23T01:40:06;19.88;;;17.85;;
53036;SDS011;38924;52.134;4.666;2023-03-23T01:42:35;18.35;;;16.85;;
53036;SDS011;38924;52.134;4.666;2023-03-23T01:45:21;19.42;;;17.48;;
53036;SDS011;38924;52.134;4.666;2023-03-23T01:47:48;18.58;;;16.98;;
53036;SDS011;38924;52.134;4.666;2023-03-23T01:50:17;18.45;;;16.70;;
53036;SDS011;38924;52.134;4.666;2023-03-23T01:52:43;19.88;;;18.08;;
53036;SDS011;38924;52.134;4.666;2023-03-23T01:55:09;17.30;;;16.05;;
53036;SDS011;38924;52.134;4.666;2023-03-23T01:57:34;20.05;;;17.55;;
53036;SDS011;38924;52.134;4.666;2023-03-23T02:00:03;20.83;;;18.90;;
53036;SDS011;38924;52.134;4.666;2023-03-23T02:02:56;22.07;;;20.43;;
53036;SDS011;38924;52.134;4.666;2023-03-23T02:05:27;19.83;;;18.35;;
53036;SDS011;38924;52.134;4.666;2023-03-23T02:07:56;22.20;;;20.63;;
53036;SDS011;38924;52.134;4.666;2023-03-23T02:10:24;19.50;;;18.08;;
53036;SDS011;38924;52.134;4.666;2023-03-23T02:12:50;18.95;;;17.30;;
53036;SDS011;38924;52.134;4.666;2023-03-23T02:15:16;17.85;;;16.30;;
53036;SDS011;38924;52.134;4.666;2023-03-23T02:22:58;16.25;;;14.95;;
53036;SDS011;38924;52.134;4.666;2023-03-23T02:30:49;16.40;;;14.95;;
53036;SDS011;38924;52.134;4.666;2023-03-23T02:38:15;19.42;;;17.60;;
53036;SDS011;38924;52.134;4.666;2023-03-23T02:40:45;17.23;;;16.02;;
53036;SDS011;38924;52.134;4.666;2023-03-23T02:43:14;17.88;;;16.40;;
53036;SDS011;38924;52.134;4.666;2023-03-23T02:45:40;18.45;;;16.70;;
53036;SDS011;38924;52.134;4.666;2023-03-23T02:48:07;18.10;;;16.52;;
53036;SDS011;38924;52.134;4.666;2023-03-23T02:50:34;17.55;;;16.20;;
53036;SDS011;38924;52.134;4.666;2023-03-23T02:53:03;17.40;;;15.38;;
53036;SDS011;38924;52.134;4.666;2023-03-23T02:55:31;19.70;;;17.70;;
53036;SDS011;38924;52.134;4.666;2023-03-23T02:58:01;17.38;;;15.68;;
53036;SDS011;38924;52.134;4.666;2023-03-23T03:00:30;16.80;;;15.30;;
53036;SDS011;38924;52.134;4.666;2023-03-23T03:02:58;16.23;;;14.68;;
53036;SDS011;38924;52.134;4.666;2023-03-23T03:05:38;16.67;;;15.15;;
53036;SDS011;38924;52.134;4.666;2023-03-23T03:10:42;18.48;;;16.88;;
53036;SDS011;38924;52.134;4.666;2023-03-23T03:18:53;14.18;;;12.80;;
53036;SDS011;38924;52.134;4.666;2023-03-23T03:21:21;14.70;;;13.20;;
53036;SDS011;38924;52.134;4.666;2023-03-23T03:23:52;17.05;;;12.93;;
53036;SDS011;38924;52.134;4.666;2023-03-23T03:26:19;14.63;;;11.75;;
53036;SDS011;38924;52.134;4.666;2023-03-23T03:28:52;14.50;;;12.35;;
53036;SDS011;38924;52.134;4.666;2023-03-23T03:31:30;13.57;;;12.63;;
53036;SDS011;38924;52.134;4.666;2023-03-23T03:33:57;21.38;;;13.25;;
53036;SDS011;38924;52.134;4.666;2023-03-23T03:36:26;11.82;;;10.73;;
53036;SDS011;38924;52.134;4.666;2023-03-23T03:38:53;16.25;;;12.30;;
53036;SDS011;38924;52.134;4.666;2023-03-23T03:41:19;14.18;;;12.10;;
53036;SDS011;38924;52.134;4.666;2023-03-23T03:43:46;13.65;;;12.57;;
53036;SDS011;38924;52.134;4.666;2023-03-23T03:46:12;12.35;;;10.15;;
53036;SDS011;38924;52.134;4.666;2023-03-23T03:48:38;13.07;;;11.88;;
53036;SDS011;38924;52.134;4.666;2023-03-23T03:51:04;17.17;;;13.77;;
53036;SDS011;38924;52.134;4.666;2023-03-23T03:53:32;17.52;;;11.98;;
53036;SDS011;38924;52.134;4.666;2023-03-23T03:55:58;12.15;;;10.93;;
53036;SDS011;38924;52.134;4.666;2023-03-23T03:58:26;16.92;;;11.73;;
53036;SDS011;38924;52.134;4.666;2023-03-23T04:01:21;14.18;;;12.77;;
53036;SDS011;38924;52.134;4.666;2023-03-23T04:03:48;15.75;;;12.60;;
53036;SDS011;38924;52.134;4.666;2023-03-23T04:06:21;16.30;;;12.88;;
53036;SDS011;38924;52.134;4.666;2023-03-23T04:08:46;13.05;;;11.68;;
53036;SDS011;38924;52.134;4.666;2023-03-23T04:11:13;18.65;;;14.65;;
53036;SDS011;38924;52.134;4.666;2023-03-23T04:13:39;16.08;;;12.32;;
53036;SDS011;38924;52.134;4.666;2023-03-23T04:16:14;22.40;;;14.27;;
53036;SDS011;38924;52.134;4.666;2023-03-23T04:18:48;20.23;;;13.23;;
53036;SDS011;38924;52.134;4.666;2023-03-23T04:21:24;22.67;;;15.15;;
53036;SDS011;38924;52.134;4.666;2023-03-23T04:23:55;16.60;;;14.15;;
53036;SDS011;38924;52.134;4.666;2023-03-23T04:26:30;22.75;;;12.75;;
53036;SDS011;38924;52.134;4.666;2023-03-23T04:29:02;20.42;;;13.93;;
53036;SDS011;38924;52.134;4.666;2023-03-23T04:31:50;25.00;;;15.57;;
53036;SDS011;38924;52.134;4.666;2023-03-23T04:34:27;20.52;;;15.20;;
53036;SDS011;38924;52.134;4.666;2023-03-23T04:36:53;21.95;;;14.10;;
53036;SDS011;38924;52.134;4.666;2023-03-23T04:39:23;16.23;;;13.05;;
53036;SDS011;38924;52.134;4.666;2023-03-23T04:41:50;24.27;;;15.43;;
53036;SDS011;38924;52.134;4.666;2023-03-23T04:44:22;23.65;;;14.82;;
53036;SDS011;38924;52.134;4.666;2023-03-23T04:49:22;24.73;;;14.30;;
53036;SDS011;38924;52.134;4.666;2023-03-23T04:51:53;22.23;;;18.15;;
53036;SDS011;38924;52.134;4.666;2023-03-23T04:54:30;18.52;;;15.35;;
53036;SDS011;38924;52.134;4.666;2023-03-23T04:56:59;22.50;;;16.23;;
53036;SDS011;38924;52.134;4.666;2023-03-23T04:59:25;23.13;;;18.38;;
53036;SDS011;38924;52.134;4.666;2023-03-23T05:02:11;19.73;;;16.75;;
53036;SDS011;38924;52.134;4.666;2023-03-23T05:04:39;32.70;;;18.98;;
53036;SDS011;38924;52.134;4.666;2023-03-23T05:07:12;23.30;;;16.23;;
53036;SDS011;38924;52.134;4.666;2023-03-23T05:09:46;25.27;;;15.90;;
53036;SDS011;38924;52.134;4.666;2023-03-23T05:12:12;30.38;;;15.40;;
53036;SDS011;38924;52.134;4.666;2023-03-23T05:14:57;25.47;;;16.23;;
53036;SDS011;38924;52.134;4.666;2023-03-23T05:17:26;25.50;;;17.27;;
53036;SDS011;38924;52.134;4.666;2023-03-23T05:19:55;29.27;;;15.10;;
53036;SDS011;38924;52.134;4.666;2023-03-23T05:22:37;25.10;;;14.65;;
53036;SDS011;38924;52.134;4.666;2023-03-23T05:25:05;22.30;;;13.50;;
53036;SDS011;38924;52.134;4.666;2023-03-23T05:27:35;20.75;;;13.00;;
53036;SDS011;38924;52.134;4.666;2023-03-23T05:30:10;27.67;;;12.82;;
53036;SDS011;38924;52.134;4.666;2023-03-23T05:32:42;19.85;;;12.15;;
53036;SDS011;38924;52.134;4.666;2023-03-23T05:35:28;30.05;;;12.40;;
53036;SDS011;38924;52.134;4.666;2023-03-23T05:37:56;22.67;;;14.20;;
53036;SDS011;38924;52.134;4.666;2023-03-23T05:40:23;26.55;;;13.43;;
53036;SDS011;38924;52.134;4.666;2023-03-23T05:42:56;25.08;;;14.00;;
53036;SDS011;38924;52.134;4.666;2023-03-23T05:45:31;29.85;;;14.05;;
53036;SDS011;38924;52.134;4.666;2023-03-23T05:47:56;32.50;;;13.25;;
53036;SDS011;38924;52.134;4.666;2023-03-23T05:50:26;28.73;;;16.63;;
53036;SDS011;38924;52.134;4.666;2023-03-23T05:52:54;26.50;;;14.18;;
53036;SDS011;38924;52.134;4.666;2023-03-23T05:55:21;34.15;;;16.55;;
53036;SDS011;38924;52.134;4.666;2023-03-23T05:57:55;26.25;;;14.40;;
53036;SDS011;38924;52.134;4.666;2023-03-23T06:00:31;28.95;;;15.50;;
53036;SDS011;38924;52.134;4.666;2023-03-23T06:03:08;28.90;;;14.77;;
53036;SDS011;38924;52.134;4.666;2023-03-23T06:05:47;22.67;;;15.20;;
53036;SDS011;38924;52.134;4.666;2023-03-23T06:08:17;28.25;;;16.85;;
53036;SDS011;38924;52.134;4.666;2023-03-23T06:10:43;31.08;;;15.43;;
53036;SDS011;38924;52.134;4.666;2023-03-23T06:13:11;31.73;;;17.02;;
53036;SDS011;38924;52.134;4.666;2023-03-23T06:15:44;29.30;;;17.63;;
53036;SDS011;38924;52.134;4.666;2023-03-23T06:18:20;29.52;;;15.18;;
53036;SDS011;38924;52.134;4.666;2023-03-23T06:21:03;34.85;;;18.88;;
53036;SDS011;38924;52.134;4.666;2023-03-23T06:23:45;22.77;;;16.10;;
53036;SDS011;38924;52.134;4.666;2023-03-23T06:26:11;31.33;;;20.17;;
53036;SDS011;38924;52.134;4.666;2023-03-23T06:28:40;33.17;;;19.00;;
53036;SDS011;38924;52.134;4.666;2023-03-23T06:31:06;32.47;;;20.55;;
53036;SDS011;38924;52.134;4.666;2023-03-23T06:33:34;36.13;;;19.58;;
53036;SDS011;38924;52.134;4.666;2023-03-23T06:36:16;33.60;;;17.33;;
53036;SDS011;38924;52.134;4.666;2023-03-23T06:39:04;36.50;;;19.55;;
53036;SDS011;38924;52.134;4.666;2023-03-23T06:41:45;31.63;;;19.27;;
53036;SDS011;38924;52.134;4.666;2023-03-23T06:44:11;36.22;;;20.30;;
53036;SDS011;38924;52.134;4.666;2023-03-23T06:46:40;33.53;;;16.30;;
53036;SDS011;38924;52.134;4.666;2023-03-23T06:49:19;44.88;;;19.20;;
53036;SDS011;38924;52.134;4.666;2023-03-23T06:51:50;26.08;;;15.32;;
53036;SDS011;38924;52.134;4.666;2023-03-23T06:54:16;43.17;;;20.10;;
53036;SDS011;38924;52.134;4.666;2023-03-23T06:56:44;38.75;;;20.38;;
53036;SDS011;38924;52.134;4.666;2023-03-23T06:59:09;33.88;;;17.67;;
53036;SDS011;38924;52.134;4.666;2023-03-23T07:01:36;40.05;;;17.80;;
53036;SDS011;38924;52.134;4.666;2023-03-23T07:04:03;24.73;;;18.20;;
53036;SDS011;38924;52.134;4.666;2023-03-23T07:06:44;32.50;;;17.58;;
53036;SDS011;38924;52.134;4.666;2023-03-23T07:09:10;25.75;;;18.98;;
53036;SDS011;38924;52.134;4.666;2023-03-23T07:11:36;31.58;;;20.92;;
53036;SDS011;38924;52.134;4.666;2023-03-23T07:14:09;25.60;;;18.07;;
53036;SDS011;38924;52.134;4.666;2023-03-23T07:16:36;35.42;;;18.42;;
53036;SDS011;38924;52.134;4.666;2023-03-23T07:19:02;27.08;;;21.80;;
53036;SDS011;38924;52.134;4.666;2023-03-23T07:21:27;29.38;;;21.35;;
53036;SDS011;38924;52.134;4.666;2023-03-23T07:23:53;34.40;;;21.23;;
53036;SDS011;38924;52.134;4.666;2023-03-23T07:26:42;29.25;;;16.70;;
53036;SDS011;38924;52.134;4.666;2023-03-23T07:29:08;26.05;;;16.92;;
53036;SDS011;38924;52.134;4.666;2023-03-23T07:31:41;25.60;;;20.50;;
53036;SDS011;38924;52.134;4.666;2023-03-23T07:34:07;29.23;;;20.50;;
53036;SDS011;38924;52.134;4.666;2023-03-23T07:36:42;25.35;;;19.08;;
53036;SDS011;38924;52.134;4.666;2023-03-23T07:39:09;27.27;;;18.83;;
53036;SDS011;38924;52.134;4.666;2023-03-23T07:41:35;31.58;;;19.13;;
53036;SDS011;38924;52.134;4.666;2023-03-23T07:44:22;25.75;;;16.98;;
53036;SDS011;38924;52.134;4.666;2023-03-23T07:46:50;27.20;;;15.32;;
53036;SDS011;38924;52.134;4.666;2023-03-23T07:49:26;24.95;;;15.60;;
53036;SDS011;38924;52.134;4.666;2023-03-23T07:52:02;22.25;;;18.15;;
53036;SDS011;38924;52.134;4.666;2023-03-23T07:54:31;24.35;;;21.73;;
53036;SDS011;38924;52.134;4.666;2023-03-23T07:57:09;28.02;;;18.75;;
53036;SDS011;38924;52.134;4.666;2023-03-23T07:59:39;25.05;;;20.27;;
53036;SDS011;38924;52.134;4.666;2023-03-23T08:02:07;26.77;;;20.20;;
53036;SDS011;38924;52.134;4.666;2023-03-23T08:04:54;30.73;;;20.55;;
53036;SDS011;38924;52.134;4.666;2023-03-23T08:07:45;23.58;;;19.83;;
53036;SDS011;38924;52.134;4.666;2023-03-23T08:10:28;27.13;;;17.38;;
53036;SDS011;38924;52.134;4.666;2023-03-23T08:13:30;28.95;;;17.85;;
53036;SDS011;38924;52.134;4.666;2023-03-23T08:16:14;24.20;;;20.33;;
53036;SDS011;38924;52.134;4.666;2023-03-23T08:19:04;31.38;;;21.08;;
53036;SDS011;38924;52.134;4.666;2023-03-23T08:22:00;22.17;;;18.95;;
53036;SDS011;38924;52.134;4.666;2023-03-23T08:24:37;23.88;;;18.20;;
53036;SDS011;38924;52.134;4.666;2023-03-23T08:30:21;17.83;;;15.48;;
53036;SDS011;38924;52.134;4.666;2023-03-23T08:33:19;26.92;;;13.68;;
53036;SDS011;38924;52.134;4.666;2023-03-23T08:36:16;17.13;;;12.13;;
53036;SDS011;38924;52.134;4.666;2023-03-23T08:38:54;16.73;;;11.57;;
53036;SDS011;38924;52.134;4.666;2023-03-23T08:41:31;23.30;;;12.07;;
53036;SDS011;38924;52.134;4.666;2023-03-23T08:44:10;24.33;;;12.90;;
53036;SDS011;38924;52.134;4.666;2023-03-23T08:46:52;19.33;;;11.90;;
53036;SDS011;38924;52.134;4.666;2023-03-23T08:49:48;22.05;;;11.63;;
53036;SDS011;38924;52.134;4.666;2023-03-23T08:52:48;22.10;;;10.02;;
53036;SDS011;38924;52.134;4.666;2023-03-23T08:55:28;19.00;;;10.35;;
53036;SDS011;38924;52.134;4.666;2023-03-23T08:58:08;28.75;;;11.43;;
53036;SDS011;38924;52.134;4.666;2023-03-23T09:00:54;24.92;;;9.93;;
53036;SDS011;38924;52.134;4.666;2023-03-23T09:03:51;20.95;;;11.02;;
53036;SDS011;38924;52.134;4.666;2023-03-23T09:06:32;27.33;;;10.98;;
53036;SDS011;38924;52.134;4.666;2023-03-23T09:08:58;21.00;;;9.52;;
53036;SDS011;38924;52.134;4.666;2023-03-23T09:11:26;22.60;;;9.50;;
53036;SDS011;38924;52.134;4.666;2023-03-23T09:13:51;22.08;;;9.73;;
53036;SDS011;38924;52.134;4.666;2023-03-23T09:16:17;26.08;;;9.98;;
53036;SDS011;38924;52.134;4.666;2023-03-23T09:18:43;21.65;;;9.55;;
53036;SDS011;38924;52.134;4.666;2023-03-23T09:21:10;24.45;;;8.85;;
53036;SDS011;38924;52.134;4.666;2023-03-23T09:23:35;31.80;;;10.40;;
53036;SDS011;38924;52.134;4.666;2023-03-23T09:26:02;19.27;;;8.98;;
53036;SDS011;38924;52.134;4.666;2023-03-23T09:28:28;23.83;;;10.13;;
53036;SDS011;38924;52.134;4.666;2023-03-23T09:30:57;23.13;;;9.75;;
53036;SDS011;38924;52.134;4.666;2023-03-23T09:33:23;26.88;;;10.00;;
53036;SDS011;38924;52.134;4.666;2023-03-23T09:35:49;24.63;;;9.15;;
53036;SDS011;38924;52.134;4.666;2023-03-23T09:38:15;34.92;;;12.38;;
53036;SDS011;38924;52.134;4.666;2023-03-23T09:40:58;32.78;;;11.18;;
53036;SDS011;38924;52.134;4.666;2023-03-23T09:43:42;22.20;;;9.40;;
53036;SDS011;38924;52.134;4.666;2023-03-23T09:48:50;32.65;;;10.65;;
53036;SDS011;38924;52.134;4.666;2023-03-23T09:53:49;26.48;;;9.38;;
53036;SDS011;38924;52.134;4.666;2023-03-23T09:56:16;26.35;;;9.43;;
53036;SDS011;38924;52.134;4.666;2023-03-23T09:58:53;27.05;;;10.55;;
53036;SDS011;38924;52.134;4.666;2023-03-23T10:03:56;26.33;;;8.77;;
53036;SDS011;38924;52.134;4.666;2023-03-23T10:06:23;30.38;;;11.07;;
53036;SDS011;38924;52.134;4.666;2023-03-23T10:08:50;19.55;;;8.93;;
53036;SDS011;38924;52.134;4.666;2023-03-23T10:16:24;25.48;;;9.90;;
53036;SDS011;38924;52.134;4.666;2023-03-23T10:18:58;32.60;;;9.43;;
53036;SDS011;38924;52.134;4.666;2023-03-23T10:21:26;24.65;;;10.02;;
53036;SDS011;38924;52.134;4.666;2023-03-23T10:28:51;27.77;;;10.70;;
53036;SDS011;38924;52.134;4.666;2023-03-23T10:31:19;23.08;;;8.68;;
53036;SDS011;38924;52.134;4.666;2023-03-23T10:33:50;23.83;;;9.55;;
53036;SDS011;38924;52.134;4.666;2023-03-23T10:36:19;27.90;;;9.55;;
53036;SDS011;38924;52.134;4.666;2023-03-23T10:38:53;31.10;;;13.52;;
53036;SDS011;38924;52.134;4.666;2023-03-23T10:41:20;35.03;;;10.90;;
53036;SDS011;38924;52.134;4.666;2023-03-23T10:43:47;28.70;;;9.65;;
53036;SDS011;38924;52.134;4.666;2023-03-23T10:48:46;26.05;;;11.25;;
53036;SDS011;38924;52.134;4.666;2023-03-23T10:51:13;30.90;;;11.30;;
53036;SDS011;38924;52.134;4.666;2023-03-23T10:53:45;33.78;;;12.43;;
53036;SDS011;38924;52.134;4.666;2023-03-23T10:56:20;25.98;;;11.93;;
53036;SDS011;38924;52.134;4.666;2023-03-23T10:58:47;21.35;;;10.85;;
53036;SDS011;38924;52.134;4.666;2023-03-23T11:01:13;27.08;;;12.30;;
53036;SDS011;38924;52.134;4.666;2023-03-23T11:03:40;29.80;;;12.25;;
53036;SDS011;38924;52.134;4.666;2023-03-23T11:06:07;38.65;;;12.70;;
53036;SDS011;38924;52.134;4.666;2023-03-23T11:08:35;30.75;;;11.48;;
53036;SDS011;38924;52.134;4.666;2023-03-23T11:11:11;31.02;;;13.98;;
53036;SDS011;38924;52.134;4.666;2023-03-23T11:13:42;28.63;;;11.95;;
53036;SDS011;38924;52.134;4.666;2023-03-23T11:16:21;24.48;;;13.05;;
53036;SDS011;38924;52.134;4.666;2023-03-23T11:18:47;24.35;;;12.52;;
53036;SDS011;38924;52.134;4.666;2023-03-23T11:21:13;22.90;;;12.98;;
53036;SDS011;38924;52.134;4.666;2023-03-23T11:23:43;23.75;;;12.02;;
53036;SDS011;38924;52.134;4.666;2023-03-23T11:26:28;22.88;;;11.07;;
53036;SDS011;38924;52.134;4.666;2023-03-23T11:34:16;21.38;;;10.60;;
53036;SDS011;38924;52.134;4.666;2023-03-23T11:36:43;24.58;;;11.32;;
53036;SDS011;38924;52.134;4.666;2023-03-23T11:40:14;24.33;;;11.57;;
53036;SDS011;38924;52.134;4.666;2023-03-23T11:42:16;20.45;;;9.70;;
53036;SDS011;38924;52.134;4.666;2023-03-23T11:44:43;20.52;;;10.18;;
53036;SDS011;38924;52.134;4.666;2023-03-23T11:47:17;19.35;;;11.18;;
53036;SDS011;38924;52.134;4.666;2023-03-23T11:49:50;18.45;;;11.75;;
53036;SDS011;38924;52.134;4.666;2023-03-23T11:52:23;22.67;;;10.98;;
53036;SDS011;38924;52.134;4.666;2023-03-23T11:54:54;18.37;;;9.80;;
53036;SDS011;38924;52.134;4.666;2023-03-23T11:57:24;20.60;;;11.55;;
53036;SDS011;38924;52.134;4.666;2023-03-23T11:59:49;21.85;;;9.80;;
53036;SDS011;38924;52.134;4.666;2023-03-23T12:02:24;23.30;;;10.45;;
53036;SDS011;38924;52.134;4.666;2023-03-23T12:05:10;24.50;;;10.02;;
53036;SDS011;38924;52.134;4.666;2023-03-23T12:10:30;24.60;;;9.88;;
53036;SDS011;38924;52.134;4.666;2023-03-23T12:21:20;14.52;;;8.18;;
53036;SDS011;38924;52.134;4.666;2023-03-23T12:40:09;18.50;;;10.15;;
53036;SDS011;38924;52.134;4.666;2023-03-23T12:47:37;16.38;;;9.68;;
53036;SDS011;38924;52.134;4.666;2023-03-23T12:50:15;15.80;;;10.23;;
53036;SDS011;38924;52.134;4.666;2023-03-23T12:55:25;16.35;;;9.13;;
53036;SDS011;38924;52.134;4.666;2023-03-23T12:57:54;15.77;;;10.00;;
53036;SDS011;38924;52.134;4.666;2023-03-23T13:00:25;22.75;;;10.18;;
53036;SDS011;38924;52.134;4.666;2023-03-23T13:08:09;20.08;;;10.90;;
53036;SDS011;38924;52.134;4.666;2023-03-23T13:10:40;21.33;;;10.73;;
53036;SDS011;38924;52.134;4.666;2023-03-23T13:13:11;19.08;;;9.45;;
53036;SDS011;38924;52.134;4.666;2023-03-23T13:23:27;17.98;;;9.70;;
53036;SDS011;38924;52.134;4.666;2023-03-23T13:26:06;19.10;;;9.18;;
53036;SDS011;38924;52.134;4.666;2023-03-23T13:33:36;31.23;;;11.32;;
53036;SDS011;38924;52.134;4.666;2023-03-23T13:36:12;23.60;;;10.77;;
53036;SDS011;38924;52.134;4.666;2023-03-23T13:38:38;24.63;;;11.30;;
53036;SDS011;38924;52.134;4.666;2023-03-23T13:41:08;22.45;;;11.90;;
53036;SDS011;38924;52.134;4.666;2023-03-23T13:43:35;20.48;;;9.93;;
53036;SDS011;38924;52.134;4.666;2023-03-23T13:46:09;26.40;;;10.55;;
53036;SDS011;38924;52.134;4.666;2023-03-23T13:48:48;28.92;;;11.32;;
53036;SDS011;38924;52.134;4.666;2023-03-23T13:53:48;24.85;;;10.55;;
53036;SDS011;38924;52.134;4.666;2023-03-23T13:58:49;21.77;;;10.30;;
53036;SDS011;38924;52.134;4.666;2023-03-23T14:01:31;26.15;;;12.00;;
53036;SDS011;38924;52.134;4.666;2023-03-23T14:04:02;24.53;;;11.13;;
53036;SDS011;38924;52.134;4.666;2023-03-23T14:06:33;21.50;;;11.70;;
53036;SDS011;38924;52.134;4.666;2023-03-23T14:09:31;22.33;;;9.80;;
53036;SDS011;38924;52.134;4.666;2023-03-23T14:11:58;25.65;;;10.07;;
53036;SDS011;38924;52.134;4.666;2023-03-23T14:14:39;23.42;;;12.20;;
53036;SDS011;38924;52.134;4.666;2023-03-23T14:17:15;25.55;;;11.68;;
53036;SDS011;38924;52.134;4.666;2023-03-23T14:19:42;19.70;;;9.82;;
53036;SDS011;38924;52.134;4.666;2023-03-23T14:22:55;26.15;;;11.13;;
53036;SDS011;38924;52.134;4.666;2023-03-23T14:25:02;22.10;;;10.70;;
53036;SDS011;38924;52.134;4.666;2023-03-23T14:27:35;24.08;;;10.32;;
53036;SDS011;38924;52.134;4.666;2023-03-23T14:30:02;29.20;;;12.50;;
53036;SDS011;38924;52.134;4.666;2023-03-23T14:32:29;22.85;;;11.55;;
53036;SDS011;38924;52.134;4.666;2023-03-23T14:35:00;19.45;;;9.93;;
53036;SDS011;38924;52.134;4.666;2023-03-23T14:37:30;23.77;;;10.95;;
53036;SDS011;38924;52.134;4.666;2023-03-23T14:39:57;29.30;;;11.45;;
53036;SDS011;38924;52.134;4.666;2023-03-23T14:42:31;15.90;;;10.80;;
53036;SDS011;38924;52.134;4.666;2023-03-23T14:44:57;20.95;;;12.35;;
53036;SDS011;38924;52.134;4.666;2023-03-23T14:47:28;30.60;;;12.18;;
53036;SDS011;38924;52.134;4.666;2023-03-23T14:49:55;24.55;;;11.02;;
53036;SDS011;38924;52.134;4.666;2023-03-23T14:52:22;21.48;;;10.48;;
53036;SDS011;38924;52.134;4.666;2023-03-23T14:54:48;20.35;;;10.50;;
53036;SDS011;38924;52.134;4.666;2023-03-23T14:57:16;24.42;;;10.95;;
53036;SDS011;38924;52.134;4.666;2023-03-23T14:59:43;22.25;;;10.52;;
53036;SDS011;38924;52.134;4.666;2023-03-23T15:02:10;30.25;;;12.88;;
53036;SDS011;38924;52.134;4.666;2023-03-23T15:04:37;19.08;;;11.48;;
53036;SDS011;38924;52.134;4.666;2023-03-23T15:07:03;24.88;;;12.57;;
53036;SDS011;38924;52.134;4.666;2023-03-23T15:09:30;31.88;;;11.70;;
53036;SDS011;38924;52.134;4.666;2023-03-23T15:11:57;24.73;;;10.38;;
53036;SDS011;38924;52.134;4.666;2023-03-23T15:14:26;28.20;;;11.82;;
53036;SDS011;38924;52.134;4.666;2023-03-23T15:16:53;27.85;;;11.13;;
53036;SDS011;38924;52.134;4.666;2023-03-23T15:19:24;27.40;;;11.55;;
53036;SDS011;38924;52.134;4.666;2023-03-23T15:21:51;29.55;;;11.23;;
53036;SDS011;38924;52.134;4.666;2023-03-23T15:24:33;22.30;;;10.55;;
53036;SDS011;38924;52.134;4.666;2023-03-23T15:27:04;26.75;;;10.80;;
53036;SDS011;38924;52.134;4.666;2023-03-23T15:29:45;23.40;;;11.73;;
53036;SDS011;38924;52.134;4.666;2023-03-23T15:32:10;24.77;;;13.45;;
53036;SDS011;38924;52.134;4.666;2023-03-23T15:34:36;23.88;;;11.27;;
53036;SDS011;38924;52.134;4.666;2023-03-23T15:37:05;27.67;;;11.73;;
53036;SDS011;38924;52.134;4.666;2023-03-23T15:39:31;18.17;;;9.65;;
53036;SDS011;38924;52.134;4.666;2023-03-23T15:41:58;28.58;;;10.95;;
53036;SDS011;38924;52.134;4.666;2023-03-23T15:44:31;24.00;;;9.93;;
53036;SDS011;38924;52.134;4.666;2023-03-23T15:47:14;23.83;;;10.23;;
53036;SDS011;38924;52.134;4.666;2023-03-23T15:49:44;24.10;;;11.55;;
53036;SDS011;38924;52.134;4.666;2023-03-23T15:52:10;24.50;;;13.10;;
53036;SDS011;38924;52.134;4.666;2023-03-23T15:54:37;22.45;;;10.27;;
53036;SDS011;38924;52.134;4.666;2023-03-23T15:57:02;23.58;;;10.30;;
53036;SDS011;38924;52.134;4.666;2023-03-23T15:59:28;21.67;;;11.05;;
53036;SDS011;38924;52.134;4.666;2023-03-23T16:01:54;25.52;;;11.95;;
53036;SDS011;38924;52.134;4.666;2023-03-23T16:04:20;23.85;;;12.52;;
53036;SDS011;38924;52.134;4.666;2023-03-23T16:06:46;18.20;;;10.02;;
53036;SDS011;38924;52.134;4.666;2023-03-23T16:09:13;24.52;;;11.40;;
53036;SDS011;38924;52.134;4.666;2023-03-23T16:11:39;31.23;;;11.45;;
53036;SDS011;38924;52.134;4.666;2023-03-23T16:14:05;19.17;;;11.82;;
53036;SDS011;38924;52.134;4.666;2023-03-23T16:16:32;21.52;;;11.10;;
53036;SDS011;38924;52.134;4.666;2023-03-23T16:19:01;18.95;;;11.63;;
53036;SDS011;38924;52.134;4.666;2023-03-23T16:21:27;24.02;;;11.63;;
53036;SDS011;38924;52.134;4.666;2023-03-23T16:23:53;28.70;;;12.45;;
53036;SDS011;38924;52.134;4.666;2023-03-23T16:26:19;27.80;;;11.27;;
53036;SDS011;38924;52.134;4.666;2023-03-23T16:28:44;20.00;;;11.70;;
53036;SDS011;38924;52.134;4.666;2023-03-23T16:31:10;25.15;;;11.98;;
53036;SDS011;38924;52.134;4.666;2023-03-23T16:33:36;29.08;;;11.90;;
53036;SDS011;38924;52.134;4.666;2023-03-23T16:36:02;26.27;;;12.63;;
53036;SDS011;38924;52.134;4.666;2023-03-23T16:38:28;23.98;;;11.10;;
53036;SDS011;38924;52.134;4.666;2023-03-23T16:40:53;25.83;;;11.73;;